CheckWX is a tool to help pilots better visualize weather data.  It is not intended as a substitute for an official pre-flight weather briefing.

00:23:50 UTC

KEHR METAR
Henderson City-County Airport
Henderson, Kentucky, USA
Current

28 mins ago

KEHR 182356Z AUTO 10003KT 10SM CLR 15/04 A2995 RMK AO2 SLP142 T01500039 10194 20150 56008
Observed
Oct-18 @ 23:56 UTC
Wind
  • 100° at 3 KTS
Visibility
10 SM
Flight Rules
VFR
Cloud Levels
  • Clear skies
Temperature
15°C / 59°F
Dewpoint
C / 39°F
Humidity
48%
Altimeter
29.95" Hg
Pressure
1014.22 hPa
Previous

1 hour ago

KEHR 182256Z AUTO 10004KT 10SM CLR 17/04 A2995 RMK AO2 SLP143 T01670039
Observed
Oct-18 @ 22:56 UTC
Wind
  • 100° at 4 KTS
Visibility
10 SM
Flight Rules
VFR
Cloud Levels
  • Clear skies
Temperature
17°C / 63°F
Dewpoint
C / 39°F
Humidity
42%
Altimeter
29.95" Hg
Pressure
1014.22 hPa
Previous

2 hours ago

KEHR 182156Z AUTO 12006KT 10SM CLR 19/03 A2997 RMK AO2 SLP148 T01890033
Observed
Oct-18 @ 21:56 UTC
Wind
  • 120° at 6 KTS
Visibility
10 SM
Flight Rules
VFR
Cloud Levels
  • Clear skies
Temperature
19°C / 66°F
Dewpoint
C / 37°F
Humidity
35%
Altimeter
29.97" Hg
Pressure
1014.92 hPa